Список аэропортов
Фактическая погода:

3:00
Температура: +23.3°C
Ветер: восточный 4 м/с
Видимость: 10 км
Давление: 752 мм рт. ст.
1002.4 гПа (+0.2)

Облачность: 10/0
перистые
выше 2,5 км
Время (МСК)Темп. СВетерВлажностьДавлениеОблачностьОсадки
03:00+17С, 1 м/с90%1019 гПаоблачно
04:00+17С, 1 м/с89%1019 гПаоблачно
05:00+16С, 1 м/с87%1019 гПаоблачнодождь
06:00+17Штиль 84%1020 гПаоблачнодождь
07:00+18С, 2 м/с92%1020 гПаоблачно
08:00+20СЗ, 1 м/с89%1020 гПаоблачно
09:00+22В, 2 м/с84%1020 гПаоблачно
10:00+25СВ, 2 м/с67%1020 гПас прояснениями
11:00+29СВ, 3 м/с49%1019 гПамалооблачно
12:00+31В, 3 м/с41%1019 гПамалооблачно
13:00+32В, 4 м/с37%1019 гПамалооблачно
14:00+32В, 4 м/с33%1018 гПаоблачносл. дождь
15:00+32ЮВ, 3 м/с33%1018 гПаоблачно
16:00+33Ю, 4 м/с24%1018 гПаоблачнодождь
17:00+29Ю, 2 м/с48%1018 гПаоблачно
18:00+27ЮВ, 2 м/с59%1018 гПас прояснениями
19:00+24В, 2 м/с68%1019 гПамалооблачно
20:00+23В, 2 м/с66%1019 гПамалооблачно
21:00+22В, 2 м/с62%1018 гПас прояснениями
22:00+22В, 2 м/с63%1018 гПаоблачно
23:00+22В, 2 м/с68%1018 гПаоблачно
20 августа
00:00+21ЮВ, 2 м/с70%1018 гПаоблачно
01:00+21ЮВ, 2 м/с75%1018 гПаоблачно
02:00+21ЮВ, 2 м/с74%1018 гПаоблачно
03:00+20Ю, 2 м/с79%1018 гПаоблачно
04:00+20Ю, 2 м/с79%1018 гПаоблачно
05:00+20ЮЗ, 1 м/с83%1019 гПаоблачно
06:00+20ЮВ, 1 м/с86%1019 гПас прояснениями
07:00+21Штиль 85%1019 гПас прояснениями
08:00+25З, 2 м/с68%1019 гПамалооблачно
09:00+28З, 3 м/с57%1019 гПаясно
10:00+29СЗ, 3 м/с53%1019 гПаясно
11:00+30СЗ, 3 м/с49%1019 гПаясно
12:00+31СЗ, 3 м/с48%1019 гПаясно
13:00+31З, 2 м/с46%1019 гПаясно
14:00+32З, 3 м/с45%1019 гПаясно
15:00+31З, 3 м/с46%1019 гПамалооблачно
16:00+30З, 3 м/с49%1018 гПаоблачно
17:00+29З, 4 м/с53%1018 гПас прояснениями
18:00+28З, 3 м/с57%1019 гПамалооблачно
19:00+26З, 3 м/с64%1019 гПамалооблачно
20:00+24СЗ, 3 м/с69%1019 гПас прояснениями
21:00+23СЗ, 3 м/с74%1019 гПамалооблачно
22:00+22СЗ, 3 м/с75%1020 гПамалооблачно
23:00+21СЗ, 3 м/с78%1020 гПаясно
21 августа
00:00+20СЗ, 3 м/с81%1020 гПамалооблачно
01:00+19СЗ, 2 м/с84%1020 гПаясно
02:00+18СЗ, 2 м/с87%1020 гПаясно
03:00+17З, 2 м/с90%1020 гПаясно